Relevés horaires Cimetta (Suisse)


Relevés horaires à Cimetta - Samedi 01 Sept. 2018
Heure UTC1 Température [°C] Vent [km/h] Hum. [%] Pres.4 [hPa] Visi. [Km] Nébu. [octa] Préc.5 [mm] Cond.
2m. Res. Ros. Dir.2 Vit. Moy. Raf.3
23:00 9.6 8.3 1.8 NNO 9.3 -- -- 58 850 -- -- -- --
22:00 9.9 8.1 1.5 N 13.0 -- -- 56 850 -- -- -- --
21:00 10.3 9.9 1.5 N 5.6 -- 37.0 54 850(0.5/3h) -- -- -- --
20:00 9.8 7.3 1.7 NNE 18.5 -- -- 57 850 -- -- -- --
19:00 10.6 8.9 1.5 N 13.0 -- -- 53 850 -- -- -- --
18:00 10.6 9.2 1.8 N 11.1 -- 40.7 54 850(0.4/3h) -- -- 0.6/12h
--
17:00 10.8 8.3 2.1 NNE 20.4 -- -- 55 850 -- -- -- --
16:00 10.4 8.2 3.4 N 16.7 -- -- 62 850 -- -- -- --
15:00 10.0 7.7 3.1 N 16.7 -- 40.7 62 850(0.3/3h) -- -- -- --
14:00 10.2 9.8 3.7 N 5.6 -- -- 64 850 -- -- -- --
13:00 11.4 9.7 4.1 NE 14.8 -- -- 61 850 -- -- -- --
12:00 10.8 10.5 1.8 NNO 5.6 -- 50.0 54 850(1.2/3h) -- -- 0.6/6h
--
11:00 10.0 8.5 3.6 NNO 11.1 -- -- 64 850 -- -- -- --
10:00 9.9 9 3.2 NNO 7.4 -- -- 63 850 -- -- -- --
09:00 8.7 6.1 2.4 NNE 16.7 -- 50.0 65 850(1.6/3h) -- -- -- --
08:00 9.0 8.4 3.1 NNE 5.6 -- -- 66 850 -- -- -- --
07:00 9.5 6.9 2.0 N 18.5 -- -- 59 850 -- -- -- --
06:00 9.1 7.4 2.2 NNO 11.1 -- 33.3 62 850(-0.7/3h) -- -- 0/12h
11.2/24h
--
05:00 9.7 7.6 1.4 N 14.8 -- -- 56 850 -- -- -- --
04:00 9.1 6.6 2.3 N 16.7 -- -- 62 850 -- -- -- --
03:00 8.9 6.6 2.3 NNO 14.8 -- 29.6 63 850(-1.5/3h) -- -- -- --
02:00 9.9 8.1 1.6 N 13.0 -- -- 56 850 -- -- -- --
01:00 9.8 7.9 1.6 N 13.0 -- -- 57 850 -- -- -- --
00:00 9.7 8.8 2.0 N 7.4 -- 31.5 59 850(0.1/3h) -- -- 0/6h
--

1 Coordinated Universal Time. Actuellement il est 20:00 locale et 18:00 UTC.

2 Le vent souffle depuis la direction indiquée vers la direction oposée.

3 Les rafales max. sont disponible 40 min après l'heure du relevé.

4 Pour les stations d'altitude (plus de 600m) le géopotentiel du niveau le plus proche de la pression obligatoire est indiqué.

5 Les stations disposant d'un diffuseur peuvent indiquer "trace". Cela signifie que des précipitations ont touchés le sol mais que la quantité est inférieure à 0.1 mm.

Récapitulatif de la journée
Température [°C] Vent [km/h] Ensoleillement4 [h] Precipitations totale5 [mm] Pression [Hpa]
Min1 Max.2 Moy.3 Max. Min Max.
8.7 12.4 0 50.0 0 h 54 min 0.6 850.0 850.0

1 Température minimale relevée entre 18:00 UTC la veille et 18:00 UTC le jour donné.

2 Température maximale relevée entre 06:00 UTC le jour donné et 06:00 UTC le lendemain.

3 Vent moyen de la journée basé sur les relevés horaires.

4 Ensoleillement en heures relevé entre 06:00 UTC la veille et 06:00 UTC le jour donné.

5 Précipitations totales tombées entre 06:00 UTC la jour donné et 06:00 UTC le lendemain.

Graphiques horaires